sensor_id;sensor_type;location;lat;lon;timestamp;P1;durP1;ratioP1;P2;durP2;ratioP2
60851;SDS011;48553;50.766;2.900;2023-07-30T00:01:10;12.90;;;2.10;;
60851;SDS011;48553;50.766;2.900;2023-07-30T00:04:11;9.13;;;1.77;;
60851;SDS011;48553;50.766;2.900;2023-07-30T00:07:11;11.15;;;1.80;;
60851;SDS011;48553;50.766;2.900;2023-07-30T00:10:12;7.97;;;1.58;;
60851;SDS011;48553;50.766;2.900;2023-07-30T00:13:13;8.93;;;1.83;;
60851;SDS011;48553;50.766;2.900;2023-07-30T00:16:13;11.80;;;1.80;;
60851;SDS011;48553;50.766;2.900;2023-07-30T00:19:14;12.77;;;1.75;;
60851;SDS011;48553;50.766;2.900;2023-07-30T00:22:14;10.23;;;1.90;;
60851;SDS011;48553;50.766;2.900;2023-07-30T00:25:15;8.98;;;1.90;;
60851;SDS011;48553;50.766;2.900;2023-07-30T00:28:15;10.05;;;2.13;;
60851;SDS011;48553;50.766;2.900;2023-07-30T00:31:16;9.48;;;1.67;;
60851;SDS011;48553;50.766;2.900;2023-07-30T00:34:16;9.95;;;2.08;;
60851;SDS011;48553;50.766;2.900;2023-07-30T00:37:17;9.68;;;1.80;;
60851;SDS011;48553;50.766;2.900;2023-07-30T00:40:17;10.25;;;1.77;;
60851;SDS011;48553;50.766;2.900;2023-07-30T00:43:17;11.00;;;1.98;;
60851;SDS011;48553;50.766;2.900;2023-07-30T00:46:18;13.98;;;2.00;;
60851;SDS011;48553;50.766;2.900;2023-07-30T00:49:18;10.77;;;1.95;;
60851;SDS011;48553;50.766;2.900;2023-07-30T00:52:20;7.50;;;1.70;;
60851;SDS011;48553;50.766;2.900;2023-07-30T00:55:21;10.23;;;2.28;;
60851;SDS011;48553;50.766;2.900;2023-07-30T00:58:22;9.50;;;1.98;;
60851;SDS011;48553;50.766;2.900;2023-07-30T01:01:23;10.02;;;1.80;;
60851;SDS011;48553;50.766;2.900;2023-07-30T01:04:24;12.63;;;1.95;;
60851;SDS011;48553;50.766;2.900;2023-07-30T01:07:24;10.73;;;2.05;;
60851;SDS011;48553;50.766;2.900;2023-07-30T01:10:25;10.70;;;1.88;;
60851;SDS011;48553;50.766;2.900;2023-07-30T01:13:27;11.00;;;1.90;;
60851;SDS011;48553;50.766;2.900;2023-07-30T01:16:28;11.60;;;2.00;;
60851;SDS011;48553;50.766;2.900;2023-07-30T01:19:29;7.82;;;1.40;;
60851;SDS011;48553;50.766;2.900;2023-07-30T01:22:29;12.45;;;2.03;;
60851;SDS011;48553;50.766;2.900;2023-07-30T01:25:30;9.35;;;1.70;;
60851;SDS011;48553;50.766;2.900;2023-07-30T01:28:36;9.85;;;1.50;;
60851;SDS011;48553;50.766;2.900;2023-07-30T01:31:39;11.50;;;1.90;;
60851;SDS011;48553;50.766;2.900;2023-07-30T01:34:41;12.57;;;2.08;;
60851;SDS011;48553;50.766;2.900;2023-07-30T01:37:44;12.02;;;1.90;;
60851;SDS011;48553;50.766;2.900;2023-07-30T01:40:45;10.10;;;2.03;;
60851;SDS011;48553;50.766;2.900;2023-07-30T01:43:45;10.07;;;1.85;;
60851;SDS011;48553;50.766;2.900;2023-07-30T01:46:46;8.18;;;1.70;;
60851;SDS011;48553;50.766;2.900;2023-07-30T01:49:46;8.93;;;2.00;;
60851;SDS011;48553;50.766;2.900;2023-07-30T01:52:47;12.90;;;1.95;;
60851;SDS011;48553;50.766;2.900;2023-07-30T01:55:47;12.48;;;2.03;;
60851;SDS011;48553;50.766;2.900;2023-07-30T01:58:47;10.00;;;1.70;;
60851;SDS011;48553;50.766;2.900;2023-07-30T02:01:48;9.85;;;1.77;;
60851;SDS011;48553;50.766;2.900;2023-07-30T02:04:48;11.30;;;2.10;;
60851;SDS011;48553;50.766;2.900;2023-07-30T02:07:48;9.43;;;2.00;;
60851;SDS011;48553;50.766;2.900;2023-07-30T02:10:56;8.32;;;1.77;;
60851;SDS011;48553;50.766;2.900;2023-07-30T02:13:59;11.80;;;2.33;;
60851;SDS011;48553;50.766;2.900;2023-07-30T02:16:59;10.23;;;2.20;;
60851;SDS011;48553;50.766;2.900;2023-07-30T02:20:00;11.50;;;2.08;;
60851;SDS011;48553;50.766;2.900;2023-07-30T02:23:00;9.63;;;2.08;;
60851;SDS011;48553;50.766;2.900;2023-07-30T02:26:01;11.50;;;2.00;;
60851;SDS011;48553;50.766;2.900;2023-07-30T02:29:01;11.90;;;1.92;;
60851;SDS011;48553;50.766;2.900;2023-07-30T02:32:01;10.35;;;2.40;;
60851;SDS011;48553;50.766;2.900;2023-07-30T02:35:02;9.45;;;1.95;;
60851;SDS011;48553;50.766;2.900;2023-07-30T02:38:02;10.00;;;1.88;;
60851;SDS011;48553;50.766;2.900;2023-07-30T02:41:03;10.57;;;1.80;;
60851;SDS011;48553;50.766;2.900;2023-07-30T02:44:03;9.68;;;2.17;;
60851;SDS011;48553;50.766;2.900;2023-07-30T02:47:04;12.50;;;2.10;;
60851;SDS011;48553;50.766;2.900;2023-07-30T02:50:05;10.85;;;2.20;;
60851;SDS011;48553;50.766;2.900;2023-07-30T02:53:08;11.43;;;2.10;;
60851;SDS011;48553;50.766;2.900;2023-07-30T02:56:09;11.32;;;2.13;;
60851;SDS011;48553;50.766;2.900;2023-07-30T02:59:09;11.77;;;2.10;;
60851;SDS011;48553;50.766;2.900;2023-07-30T03:02:09;10.82;;;2.25;;
60851;SDS011;48553;50.766;2.900;2023-07-30T03:05:10;12.25;;;2.30;;
60851;SDS011;48553;50.766;2.900;2023-07-30T03:08:10;9.73;;;2.38;;
60851;SDS011;48553;50.766;2.900;2023-07-30T03:11:11;12.13;;;2.15;;
60851;SDS011;48553;50.766;2.900;2023-07-30T03:14:13;11.05;;;2.20;;
60851;SDS011;48553;50.766;2.900;2023-07-30T03:17:13;13.77;;;2.22;;
60851;SDS011;48553;50.766;2.900;2023-07-30T03:20:13;12.15;;;2.45;;
60851;SDS011;48553;50.766;2.900;2023-07-30T03:23:14;11.95;;;2.38;;
60851;SDS011;48553;50.766;2.900;2023-07-30T03:26:14;11.50;;;2.28;;
60851;SDS011;48553;50.766;2.900;2023-07-30T03:29:15;12.00;;;2.38;;
60851;SDS011;48553;50.766;2.900;2023-07-30T03:32:16;13.70;;;2.50;;
60851;SDS011;48553;50.766;2.900;2023-07-30T03:35:16;10.63;;;2.35;;
60851;SDS011;48553;50.766;2.900;2023-07-30T03:38:16;11.77;;;2.10;;
60851;SDS011;48553;50.766;2.900;2023-07-30T03:41:17;11.07;;;2.00;;
60851;SDS011;48553;50.766;2.900;2023-07-30T03:44:17;11.00;;;2.22;;
60851;SDS011;48553;50.766;2.900;2023-07-30T03:47:18;12.98;;;2.40;;
60851;SDS011;48553;50.766;2.900;2023-07-30T03:50:18;8.75;;;2.10;;
60851;SDS011;48553;50.766;2.900;2023-07-30T03:53:18;12.88;;;2.67;;
60851;SDS011;48553;50.766;2.900;2023-07-30T03:56:19;11.95;;;2.20;;
60851;SDS011;48553;50.766;2.900;2023-07-30T03:59:19;15.13;;;2.65;;
60851;SDS011;48553;50.766;2.900;2023-07-30T04:02:19;10.90;;;2.47;;
60851;SDS011;48553;50.766;2.900;2023-07-30T04:05:20;11.93;;;2.35;;
60851;SDS011;48553;50.766;2.900;2023-07-30T04:08:20;12.30;;;2.72;;
60851;SDS011;48553;50.766;2.900;2023-07-30T04:11:21;13.93;;;2.40;;
60851;SDS011;48553;50.766;2.900;2023-07-30T04:14:22;13.80;;;2.58;;
60851;SDS011;48553;50.766;2.900;2023-07-30T04:17:22;10.30;;;2.55;;
60851;SDS011;48553;50.766;2.900;2023-07-30T04:20:22;12.18;;;2.22;;
60851;SDS011;48553;50.766;2.900;2023-07-30T04:23:23;15.55;;;2.70;;
60851;SDS011;48553;50.766;2.900;2023-07-30T04:26:23;11.02;;;2.40;;
60851;SDS011;48553;50.766;2.900;2023-07-30T04:29:23;11.02;;;2.80;;
60851;SDS011;48553;50.766;2.900;2023-07-30T04:32:24;12.35;;;2.78;;
60851;SDS011;48553;50.766;2.900;2023-07-30T04:35:24;13.57;;;2.95;;
60851;SDS011;48553;50.766;2.900;2023-07-30T04:38:25;12.68;;;2.28;;
60851;SDS011;48553;50.766;2.900;2023-07-30T04:41:25;11.40;;;2.25;;
60851;SDS011;48553;50.766;2.900;2023-07-30T04:44:25;13.68;;;2.40;;
60851;SDS011;48553;50.766;2.900;2023-07-30T04:47:26;14.85;;;2.55;;
60851;SDS011;48553;50.766;2.900;2023-07-30T04:50:26;12.68;;;2.45;;
60851;SDS011;48553;50.766;2.900;2023-07-30T04:53:27;10.52;;;2.40;;
60851;SDS011;48553;50.766;2.900;2023-07-30T04:56:27;15.48;;;2.92;;
60851;SDS011;48553;50.766;2.900;2023-07-30T04:59:27;16.42;;;2.80;;
60851;SDS011;48553;50.766;2.900;2023-07-30T05:02:28;14.50;;;2.38;;
60851;SDS011;48553;50.766;2.900;2023-07-30T05:05:28;12.57;;;2.80;;
60851;SDS011;48553;50.766;2.900;2023-07-30T05:08:29;14.65;;;2.58;;
60851;SDS011;48553;50.766;2.900;2023-07-30T05:11:29;12.90;;;2.67;;
60851;SDS011;48553;50.766;2.900;2023-07-30T05:14:30;13.45;;;2.42;;
60851;SDS011;48553;50.766;2.900;2023-07-30T05:17:30;13.95;;;2.50;;
60851;SDS011;48553;50.766;2.900;2023-07-30T05:20:30;12.10;;;2.30;;
60851;SDS011;48553;50.766;2.900;2023-07-30T05:23:31;16.52;;;2.67;;
60851;SDS011;48553;50.766;2.900;2023-07-30T05:26:31;14.88;;;2.53;;
60851;SDS011;48553;50.766;2.900;2023-07-30T05:29:32;9.57;;;2.63;;
60851;SDS011;48553;50.766;2.900;2023-07-30T05:32:32;11.57;;;2.35;;
60851;SDS011;48553;50.766;2.900;2023-07-30T05:35:32;11.82;;;2.50;;
60851;SDS011;48553;50.766;2.900;2023-07-30T05:38:33;16.30;;;2.72;;
60851;SDS011;48553;50.766;2.900;2023-07-30T05:41:33;11.70;;;2.40;;
60851;SDS011;48553;50.766;2.900;2023-07-30T05:44:34;17.35;;;2.75;;
60851;SDS011;48553;50.766;2.900;2023-07-30T05:47:34;14.02;;;2.55;;
60851;SDS011;48553;50.766;2.900;2023-07-30T05:50:35;12.57;;;2.45;;
60851;SDS011;48553;50.766;2.900;2023-07-30T05:53:35;14.15;;;3.03;;
60851;SDS011;48553;50.766;2.900;2023-07-30T05:56:35;13.88;;;2.35;;
60851;SDS011;48553;50.766;2.900;2023-07-30T05:59:36;17.83;;;2.90;;
60851;SDS011;48553;50.766;2.900;2023-07-30T06:02:36;15.80;;;2.42;;
60851;SDS011;48553;50.766;2.900;2023-07-30T06:05:40;16.25;;;3.42;;
60851;SDS011;48553;50.766;2.900;2023-07-30T06:08:40;10.43;;;2.63;;
60851;SDS011;48553;50.766;2.900;2023-07-30T06:11:41;13.23;;;2.53;;
60851;SDS011;48553;50.766;2.900;2023-07-30T06:14:41;16.05;;;3.10;;
60851;SDS011;48553;50.766;2.900;2023-07-30T06:17:42;16.60;;;2.88;;
60851;SDS011;48553;50.766;2.900;2023-07-30T06:20:42;13.77;;;3.03;;
60851;SDS011;48553;50.766;2.900;2023-07-30T06:23:42;15.65;;;2.58;;
60851;SDS011;48553;50.766;2.900;2023-07-30T06:26:43;14.63;;;2.75;;
60851;SDS011;48553;50.766;2.900;2023-07-30T06:29:43;15.45;;;2.78;;
60851;SDS011;48553;50.766;2.900;2023-07-30T06:32:43;13.15;;;2.72;;
60851;SDS011;48553;50.766;2.900;2023-07-30T06:35:45;16.42;;;2.58;;
60851;SDS011;48553;50.766;2.900;2023-07-30T06:38:45;11.52;;;2.78;;
60851;SDS011;48553;50.766;2.900;2023-07-30T06:41:46;14.65;;;2.83;;
60851;SDS011;48553;50.766;2.900;2023-07-30T06:44:46;14.10;;;2.92;;
60851;SDS011;48553;50.766;2.900;2023-07-30T06:47:47;17.10;;;3.10;;
60851;SDS011;48553;50.766;2.900;2023-07-30T06:50:47;17.02;;;2.90;;
60851;SDS011;48553;50.766;2.900;2023-07-30T06:53:47;14.13;;;2.90;;
60851;SDS011;48553;50.766;2.900;2023-07-30T06:56:48;13.43;;;2.55;;
60851;SDS011;48553;50.766;2.900;2023-07-30T06:59:48;14.00;;;2.85;;
60851;SDS011;48553;50.766;2.900;2023-07-30T07:02:49;18.55;;;2.92;;
60851;SDS011;48553;50.766;2.900;2023-07-30T07:05:55;10.23;;;2.33;;
60851;SDS011;48553;50.766;2.900;2023-07-30T07:08:56;20.63;;;3.10;;
60851;SDS011;48553;50.766;2.900;2023-07-30T07:11:57;11.68;;;2.53;;
60851;SDS011;48553;50.766;2.900;2023-07-30T07:14:58;12.77;;;2.28;;
60851;SDS011;48553;50.766;2.900;2023-07-30T07:18:01;11.95;;;2.28;;
60851;SDS011;48553;50.766;2.900;2023-07-30T07:21:01;11.90;;;2.40;;
60851;SDS011;48553;50.766;2.900;2023-07-30T07:24:02;13.80;;;2.50;;
60851;SDS011;48553;50.766;2.900;2023-07-30T07:27:03;13.73;;;2.50;;
60851;SDS011;48553;50.766;2.900;2023-07-30T07:30:04;12.98;;;2.78;;
60851;SDS011;48553;50.766;2.900;2023-07-30T07:33:04;12.40;;;2.60;;
60851;SDS011;48553;50.766;2.900;2023-07-30T07:36:06;13.23;;;2.33;;
60851;SDS011;48553;50.766;2.900;2023-07-30T07:39:07;8.75;;;2.17;;
60851;SDS011;48553;50.766;2.900;2023-07-30T07:42:08;11.20;;;2.05;;
60851;SDS011;48553;50.766;2.900;2023-07-30T07:45:08;11.82;;;2.13;;
60851;SDS011;48553;50.766;2.900;2023-07-30T07:48:09;10.90;;;2.15;;
60851;SDS011;48553;50.766;2.900;2023-07-30T07:51:09;11.85;;;1.80;;
60851;SDS011;48553;50.766;2.900;2023-07-30T07:54:10;10.75;;;1.85;;
60851;SDS011;48553;50.766;2.900;2023-07-30T07:57:11;8.27;;;1.88;;
60851;SDS011;48553;50.766;2.900;2023-07-30T08:00:11;8.60;;;1.70;;
60851;SDS011;48553;50.766;2.900;2023-07-30T08:03:12;10.15;;;1.95;;
60851;SDS011;48553;50.766;2.900;2023-07-30T08:06:12;9.75;;;2.05;;
60851;SDS011;48553;50.766;2.900;2023-07-30T08:09:13;11.18;;;2.28;;
60851;SDS011;48553;50.766;2.900;2023-07-30T08:12:13;9.15;;;2.03;;
60851;SDS011;48553;50.766;2.900;2023-07-30T08:15:14;8.90;;;1.70;;
60851;SDS011;48553;50.766;2.900;2023-07-30T08:18:14;7.57;;;1.88;;
60851;SDS011;48553;50.766;2.900;2023-07-30T08:21:15;9.73;;;1.60;;
60851;SDS011;48553;50.766;2.900;2023-07-30T08:24:17;9.38;;;1.60;;
60851;SDS011;48553;50.766;2.900;2023-07-30T08:27:17;8.95;;;1.60;;
60851;SDS011;48553;50.766;2.900;2023-07-30T08:30:18;7.78;;;1.73;;
60851;SDS011;48553;50.766;2.900;2023-07-30T08:33:18;8.45;;;2.03;;
60851;SDS011;48553;50.766;2.900;2023-07-30T08:36:19;8.73;;;1.90;;
60851;SDS011;48553;50.766;2.900;2023-07-30T08:39:19;8.95;;;1.88;;
60851;SDS011;48553;50.766;2.900;2023-07-30T08:42:19;9.88;;;1.63;;
60851;SDS011;48553;50.766;2.900;2023-07-30T08:45:20;8.95;;;1.60;;
60851;SDS011;48553;50.766;2.900;2023-07-30T08:48:20;11.25;;;2.00;;
60851;SDS011;48553;50.766;2.900;2023-07-30T08:51:21;10.73;;;2.40;;
60851;SDS011;48553;50.766;2.900;2023-07-30T08:54:22;7.38;;;1.48;;
60851;SDS011;48553;50.766;2.900;2023-07-30T08:57:22;8.20;;;1.63;;
60851;SDS011;48553;50.766;2.900;2023-07-30T09:00:24;7.35;;;1.50;;
60851;SDS011;48553;50.766;2.900;2023-07-30T09:03:25;9.00;;;2.10;;
60851;SDS011;48553;50.766;2.900;2023-07-30T09:06:27;7.18;;;1.90;;
60851;SDS011;48553;50.766;2.900;2023-07-30T09:09:28;4.97;;;1.50;;
60851;SDS011;48553;50.766;2.900;2023-07-30T09:12:29;6.40;;;1.50;;
60851;SDS011;48553;50.766;2.900;2023-07-30T09:15:34;8.13;;;1.33;;
60851;SDS011;48553;50.766;2.900;2023-07-30T09:18:43;7.47;;;1.20;;
60851;SDS011;48553;50.766;2.900;2023-07-30T09:21:44;7.80;;;1.20;;
60851;SDS011;48553;50.766;2.900;2023-07-30T09:24:45;8.40;;;2.20;;
60851;SDS011;48553;50.766;2.900;2023-07-30T09:27:47;6.53;;;1.85;;
60851;SDS011;48553;50.766;2.900;2023-07-30T09:30:52;8.10;;;1.70;;
60851;SDS011;48553;50.766;2.900;2023-07-30T09:33:59;4.85;;;1.60;;
60851;SDS011;48553;50.766;2.900;2023-07-30T09:37:00;7.75;;;1.83;;
60851;SDS011;48553;50.766;2.900;2023-07-30T09:40:02;6.00;;;1.52;;
60851;SDS011;48553;50.766;2.900;2023-07-30T09:43:04;8.82;;;1.90;;
60851;SDS011;48553;50.766;2.900;2023-07-30T09:46:06;7.43;;;1.60;;
60851;SDS011;48553;50.766;2.900;2023-07-30T09:49:08;6.88;;;1.70;;
60851;SDS011;48553;50.766;2.900;2023-07-30T09:52:08;9.30;;;1.70;;
60851;SDS011;48553;50.766;2.900;2023-07-30T09:55:10;6.55;;;1.30;;
60851;SDS011;48553;50.766;2.900;2023-07-30T09:58:11;6.43;;;1.23;;
60851;SDS011;48553;50.766;2.900;2023-07-30T10:01:12;5.93;;;1.50;;
60851;SDS011;48553;50.766;2.900;2023-07-30T10:04:12;5.50;;;1.17;;
60851;SDS011;48553;50.766;2.900;2023-07-30T10:07:14;6.68;;;1.17;;
60851;SDS011;48553;50.766;2.900;2023-07-30T10:10:19;4.07;;;1.05;;
60851;SDS011;48553;50.766;2.900;2023-07-30T10:13:21;4.43;;;1.10;;
60851;SDS011;48553;50.766;2.900;2023-07-30T10:16:25;6.38;;;1.20;;
60851;SDS011;48553;50.766;2.900;2023-07-30T10:19:27;4.70;;;1.20;;
60851;SDS011;48553;50.766;2.900;2023-07-30T10:22:28;5.63;;;1.23;;
60851;SDS011;48553;50.766;2.900;2023-07-30T10:25:29;5.28;;;1.25;;
60851;SDS011;48553;50.766;2.900;2023-07-30T10:28:46;9.30;;;1.40;;
60851;SDS011;48553;50.766;2.900;2023-07-30T10:31:55;5.72;;;1.20;;
60851;SDS011;48553;50.766;2.900;2023-07-30T10:34:57;5.72;;;1.40;;
60851;SDS011;48553;50.766;2.900;2023-07-30T10:37:57;5.85;;;1.25;;
60851;SDS011;48553;50.766;2.900;2023-07-30T10:41:02;6.22;;;1.27;;
60851;SDS011;48553;50.766;2.900;2023-07-30T10:44:16;5.03;;;1.02;;
60851;SDS011;48553;50.766;2.900;2023-07-30T10:47:27;5.70;;;1.30;;
60851;SDS011;48553;50.766;2.900;2023-07-30T10:50:28;5.45;;;1.35;;
60851;SDS011;48553;50.766;2.900;2023-07-30T10:53:28;6.95;;;1.30;;
60851;SDS011;48553;50.766;2.900;2023-07-30T10:56:28;7.28;;;1.50;;
60851;SDS011;48553;50.766;2.900;2023-07-30T10:59:35;5.35;;;1.10;;
60851;SDS011;48553;50.766;2.900;2023-07-30T11:02:36;4.78;;;0.98;;
60851;SDS011;48553;50.766;2.900;2023-07-30T11:05:40;6.43;;;1.02;;
60851;SDS011;48553;50.766;2.900;2023-07-30T11:08:41;5.47;;;1.00;;
60851;SDS011;48553;50.766;2.900;2023-07-30T11:11:43;5.10;;;1.02;;
60851;SDS011;48553;50.766;2.900;2023-07-30T11:14:43;8.15;;;1.40;;
60851;SDS011;48553;50.766;2.900;2023-07-30T11:17:43;5.00;;;1.15;;
60851;SDS011;48553;50.766;2.900;2023-07-30T11:20:45;4.95;;;1.10;;
60851;SDS011;48553;50.766;2.900;2023-07-30T11:23:46;4.75;;;1.35;;
60851;SDS011;48553;50.766;2.900;2023-07-30T11:26:56;9.63;;;1.50;;
60851;SDS011;48553;50.766;2.900;2023-07-30T11:30:01;7.40;;;1.23;;
60851;SDS011;48553;50.766;2.900;2023-07-30T11:33:02;5.90;;;1.40;;
60851;SDS011;48553;50.766;2.900;2023-07-30T11:36:03;7.65;;;1.23;;
60851;SDS011;48553;50.766;2.900;2023-07-30T11:39:04;5.00;;;1.50;;
60851;SDS011;48553;50.766;2.900;2023-07-30T11:42:05;7.00;;;1.30;;
60851;SDS011;48553;50.766;2.900;2023-07-30T11:45:18;8.32;;;1.80;;
60851;SDS011;48553;50.766;2.900;2023-07-30T11:48:22;7.40;;;1.70;;
60851;SDS011;48553;50.766;2.900;2023-07-30T11:54:26;6.95;;;1.63;;
60851;SDS011;48553;50.766;2.900;2023-07-30T11:57:35;5.70;;;1.80;;
60851;SDS011;48553;50.766;2.900;2023-07-30T12:00:37;5.57;;;1.60;;
60851;SDS011;48553;50.766;2.900;2023-07-30T12:03:38;5.70;;;1.80;;
60851;SDS011;48553;50.766;2.900;2023-07-30T12:09:43;8.30;;;2.17;;
60851;SDS011;48553;50.766;2.900;2023-07-30T12:12:46;7.63;;;2.75;;
60851;SDS011;48553;50.766;2.900;2023-07-30T12:15:52;8.02;;;2.00;;
60851;SDS011;48553;50.766;2.900;2023-07-30T12:18:53;6.25;;;2.03;;
60851;SDS011;48553;50.766;2.900;2023-07-30T12:21:54;7.32;;;1.90;;
60851;SDS011;48553;50.766;2.900;2023-07-30T12:24:54;7.85;;;1.85;;
60851;SDS011;48553;50.766;2.900;2023-07-30T12:27:55;10.98;;;2.40;;
60851;SDS011;48553;50.766;2.900;2023-07-30T12:30:55;8.48;;;2.65;;
60851;SDS011;48553;50.766;2.900;2023-07-30T12:33:55;9.60;;;2.50;;
60851;SDS011;48553;50.766;2.900;2023-07-30T12:36:56;8.57;;;2.35;;
60851;SDS011;48553;50.766;2.900;2023-07-30T12:39:58;7.82;;;2.75;;
60851;SDS011;48553;50.766;2.900;2023-07-30T12:42:58;8.45;;;4.35;;
60851;SDS011;48553;50.766;2.900;2023-07-30T12:45:58;8.82;;;2.50;;
60851;SDS011;48553;50.766;2.900;2023-07-30T12:48:59;10.55;;;3.47;;
60851;SDS011;48553;50.766;2.900;2023-07-30T12:52:04;8.05;;;2.20;;
60851;SDS011;48553;50.766;2.900;2023-07-30T12:55:05;8.13;;;2.47;;
60851;SDS011;48553;50.766;2.900;2023-07-30T12:58:06;12.48;;;3.45;;
60851;SDS011;48553;50.766;2.900;2023-07-30T13:01:06;9.52;;;3.95;;
60851;SDS011;48553;50.766;2.900;2023-07-30T13:04:07;8.93;;;2.30;;
60851;SDS011;48553;50.766;2.900;2023-07-30T13:07:07;7.30;;;2.30;;
60851;SDS011;48553;50.766;2.900;2023-07-30T13:10:08;7.68;;;2.60;;
60851;SDS011;48553;50.766;2.900;2023-07-30T13:13:09;8.15;;;2.60;;
60851;SDS011;48553;50.766;2.900;2023-07-30T13:16:09;10.20;;;2.78;;
60851;SDS011;48553;50.766;2.900;2023-07-30T13:19:10;9.40;;;2.50;;
60851;SDS011;48553;50.766;2.900;2023-07-30T13:22:10;6.78;;;2.30;;
60851;SDS011;48553;50.766;2.900;2023-07-30T13:25:11;9.55;;;2.38;;
60851;SDS011;48553;50.766;2.900;2023-07-30T13:28:11;10.43;;;2.40;;
60851;SDS011;48553;50.766;2.900;2023-07-30T13:31:11;11.70;;;2.38;;
60851;SDS011;48553;50.766;2.900;2023-07-30T13:34:12;7.45;;;1.90;;
60851;SDS011;48553;50.766;2.900;2023-07-30T13:37:12;9.00;;;2.50;;
60851;SDS011;48553;50.766;2.900;2023-07-30T13:40:13;9.63;;;2.60;;
60851;SDS011;48553;50.766;2.900;2023-07-30T13:43:13;8.15;;;2.75;;
60851;SDS011;48553;50.766;2.900;2023-07-30T13:46:14;6.88;;;2.10;;
60851;SDS011;48553;50.766;2.900;2023-07-30T13:49:14;9.30;;;2.78;;
60851;SDS011;48553;50.766;2.900;2023-07-30T13:52:14;10.18;;;2.42;;
60851;SDS011;48553;50.766;2.900;2023-07-30T13:55:15;7.95;;;2.30;;
60851;SDS011;48553;50.766;2.900;2023-07-30T13:58:16;8.73;;;2.72;;
60851;SDS011;48553;50.766;2.900;2023-07-30T14:01:17;10.77;;;2.92;;
60851;SDS011;48553;50.766;2.900;2023-07-30T14:04:17;9.57;;;3.03;;
60851;SDS011;48553;50.766;2.900;2023-07-30T14:07:17;8.55;;;2.22;;
60851;SDS011;48553;50.766;2.900;2023-07-30T14:10:18;5.40;;;1.90;;
60851;SDS011;48553;50.766;2.900;2023-07-30T14:13:18;7.57;;;1.95;;
60851;SDS011;48553;50.766;2.900;2023-07-30T14:16:19;6.38;;;1.90;;
60851;SDS011;48553;50.766;2.900;2023-07-30T14:19:19;6.93;;;2.08;;
60851;SDS011;48553;50.766;2.900;2023-07-30T14:22:20;7.22;;;2.10;;
60851;SDS011;48553;50.766;2.900;2023-07-30T14:25:21;6.45;;;2.20;;
60851;SDS011;48553;50.766;2.900;2023-07-30T14:28:21;6.50;;;1.80;;
60851;SDS011;48553;50.766;2.900;2023-07-30T14:31:22;6.72;;;1.83;;
60851;SDS011;48553;50.766;2.900;2023-07-30T14:34:22;4.95;;;1.73;;
60851;SDS011;48553;50.766;2.900;2023-07-30T14:37:22;7.63;;;1.90;;
60851;SDS011;48553;50.766;2.900;2023-07-30T14:40:23;5.70;;;1.90;;
60851;SDS011;48553;50.766;2.900;2023-07-30T14:43:23;6.35;;;2.00;;
60851;SDS011;48553;50.766;2.900;2023-07-30T14:46:24;5.32;;;1.92;;
60851;SDS011;48553;50.766;2.900;2023-07-30T14:49:24;6.63;;;1.90;;
60851;SDS011;48553;50.766;2.900;2023-07-30T14:52:25;3.75;;;1.50;;
60851;SDS011;48553;50.766;2.900;2023-07-30T14:55:26;5.25;;;1.50;;
60851;SDS011;48553;50.766;2.900;2023-07-30T14:58:26;4.95;;;1.65;;
60851;SDS011;48553;50.766;2.900;2023-07-30T15:01:28;4.63;;;1.40;;
60851;SDS011;48553;50.766;2.900;2023-07-30T15:04:29;5.18;;;1.27;;
60851;SDS011;48553;50.766;2.900;2023-07-30T15:07:30;4.78;;;1.60;;
60851;SDS011;48553;50.766;2.900;2023-07-30T15:10:31;5.68;;;1.50;;
60851;SDS011;48553;50.766;2.900;2023-07-30T15:13:31;4.00;;;1.50;;
60851;SDS011;48553;50.766;2.900;2023-07-30T15:16:31;5.78;;;1.52;;
60851;SDS011;48553;50.766;2.900;2023-07-30T15:19:32;6.93;;;1.92;;
60851;SDS011;48553;50.766;2.900;2023-07-30T15:22:32;7.60;;;2.00;;
60851;SDS011;48553;50.766;2.900;2023-07-30T15:25:33;7.10;;;1.92;;
60851;SDS011;48553;50.766;2.900;2023-07-30T15:28:33;7.20;;;2.25;;
60851;SDS011;48553;50.766;2.900;2023-07-30T15:31:33;5.15;;;1.98;;
60851;SDS011;48553;50.766;2.900;2023-07-30T15:34:34;7.80;;;2.35;;
60851;SDS011;48553;50.766;2.900;2023-07-30T15:37:34;6.25;;;2.33;;
60851;SDS011;48553;50.766;2.900;2023-07-30T15:40:35;5.65;;;2.20;;
60851;SDS011;48553;50.766;2.900;2023-07-30T15:43:35;9.38;;;2.67;;
60851;SDS011;48553;50.766;2.900;2023-07-30T15:46:36;6.35;;;2.88;;
60851;SDS011;48553;50.766;2.900;2023-07-30T15:49:36;7.43;;;2.55;;
60851;SDS011;48553;50.766;2.900;2023-07-30T15:52:36;6.97;;;2.35;;
60851;SDS011;48553;50.766;2.900;2023-07-30T15:55:37;9.18;;;2.70;;
60851;SDS011;48553;50.766;2.900;2023-07-30T15:58:37;7.45;;;2.75;;
60851;SDS011;48553;50.766;2.900;2023-07-30T16:01:38;11.27;;;2.95;;
60851;SDS011;48553;50.766;2.900;2023-07-30T16:04:39;8.65;;;2.67;;
60851;SDS011;48553;50.766;2.900;2023-07-30T16:07:40;5.97;;;2.22;;
60851;SDS011;48553;50.766;2.900;2023-07-30T16:10:41;7.35;;;2.80;;
60851;SDS011;48553;50.766;2.900;2023-07-30T16:13:41;6.78;;;2.25;;
60851;SDS011;48553;50.766;2.900;2023-07-30T16:16:43;6.75;;;2.20;;
60851;SDS011;48553;50.766;2.900;2023-07-30T16:19:44;8.40;;;2.55;;
60851;SDS011;48553;50.766;2.900;2023-07-30T16:22:44;7.30;;;2.38;;
60851;SDS011;48553;50.766;2.900;2023-07-30T16:25:45;7.10;;;2.78;;
60851;SDS011;48553;50.766;2.900;2023-07-30T16:28:45;8.48;;;2.67;;
60851;SDS011;48553;50.766;2.900;2023-07-30T16:31:46;9.13;;;2.83;;
60851;SDS011;48553;50.766;2.900;2023-07-30T16:34:46;7.75;;;2.80;;
60851;SDS011;48553;50.766;2.900;2023-07-30T16:37:47;6.45;;;2.88;;
60851;SDS011;48553;50.766;2.900;2023-07-30T16:40:47;9.15;;;3.10;;
60851;SDS011;48553;50.766;2.900;2023-07-30T16:43:48;8.38;;;2.88;;
60851;SDS011;48553;50.766;2.900;2023-07-30T16:46:48;10.30;;;3.20;;
60851;SDS011;48553;50.766;2.900;2023-07-30T16:49:49;11.65;;;3.38;;
60851;SDS011;48553;50.766;2.900;2023-07-30T16:52:49;12.20;;;3.78;;
60851;SDS011;48553;50.766;2.900;2023-07-30T16:55:50;9.13;;;3.90;;
60851;SDS011;48553;50.766;2.900;2023-07-30T16:58:50;10.30;;;3.63;;
60851;SDS011;48553;50.766;2.900;2023-07-30T17:01:51;11.20;;;3.65;;
60851;SDS011;48553;50.766;2.900;2023-07-30T17:04:51;16.92;;;3.90;;
60851;SDS011;48553;50.766;2.900;2023-07-30T17:07:53;11.85;;;4.03;;
60851;SDS011;48553;50.766;2.900;2023-07-30T17:10:53;11.70;;;3.80;;
60851;SDS011;48553;50.766;2.900;2023-07-30T17:13:55;12.25;;;3.83;;
60851;SDS011;48553;50.766;2.900;2023-07-30T17:16:55;10.45;;;3.63;;
60851;SDS011;48553;50.766;2.900;2023-07-30T17:19:55;9.32;;;3.92;;
60851;SDS011;48553;50.766;2.900;2023-07-30T17:22:56;14.20;;;4.40;;
60851;SDS011;48553;50.766;2.900;2023-07-30T17:25:57;18.00;;;4.25;;
60851;SDS011;48553;50.766;2.900;2023-07-30T17:29:01;10.90;;;4.07;;
60851;SDS011;48553;50.766;2.900;2023-07-30T17:32:02;14.93;;;4.40;;
60851;SDS011;48553;50.766;2.900;2023-07-30T17:35:03;14.27;;;4.40;;
60851;SDS011;48553;50.766;2.900;2023-07-30T17:38:04;13.32;;;4.47;;
60851;SDS011;48553;50.766;2.900;2023-07-30T17:41:04;15.05;;;4.55;;
60851;SDS011;48553;50.766;2.900;2023-07-30T17:44:05;15.35;;;4.38;;
60851;SDS011;48553;50.766;2.900;2023-07-30T17:47:05;12.88;;;4.45;;
60851;SDS011;48553;50.766;2.900;2023-07-30T17:50:06;17.30;;;4.40;;
60851;SDS011;48553;50.766;2.900;2023-07-30T17:53:06;15.23;;;4.32;;
60851;SDS011;48553;50.766;2.900;2023-07-30T17:56:07;14.98;;;4.32;;
60851;SDS011;48553;50.766;2.900;2023-07-30T17:59:08;14.05;;;4.13;;
60851;SDS011;48553;50.766;2.900;2023-07-30T18:02:09;12.52;;;4.60;;
60851;SDS011;48553;50.766;2.900;2023-07-30T18:05:09;14.70;;;4.53;;
60851;SDS011;48553;50.766;2.900;2023-07-30T18:08:10;18.83;;;4.80;;